createdAt,value
2022-12-13T00:00:20.450Z,100973.09
2022-12-13T00:02:47.256Z,100967.50
2022-12-13T00:05:14.615Z,100965.91
2022-12-13T00:07:41.771Z,100955.66
2022-12-13T00:10:09.294Z,100963.75
2022-12-13T00:12:35.962Z,100954.91
2022-12-13T00:15:03.240Z,100956.09
2022-12-13T00:17:31.316Z,100774.31
2022-12-13T00:19:57.961Z,100954.28
2022-12-13T00:22:24.722Z,100941.16
2022-12-13T00:24:53.574Z,100943.91
2022-12-13T00:27:20.175Z,100943.94
2022-12-13T00:29:46.833Z,100951.41
2022-12-13T00:32:13.587Z,100947.59
2022-12-13T00:34:40.754Z,100948.25
2022-12-13T00:37:07.447Z,100945.63
2022-12-13T00:39:34.790Z,100950.00
2022-12-13T00:42:01.280Z,100959.25
2022-12-13T00:44:28.532Z,100946.72
2022-12-13T00:46:55.226Z,100955.25
2022-12-13T00:49:22.762Z,100941.22
2022-12-13T00:51:49.720Z,100952.06
2022-12-13T00:54:16.692Z,100936.06
2022-12-13T00:56:43.655Z,100932.34
2022-12-13T00:59:13.988Z,100935.31
2022-12-13T01:01:40.831Z,100931.19
2022-12-13T01:04:08.070Z,100931.56
2022-12-13T01:06:34.948Z,100932.78
2022-12-13T01:09:02.281Z,100936.78
2022-12-13T01:11:29.982Z,100933.31
2022-12-13T01:13:56.770Z,100932.06
2022-12-13T01:16:23.954Z,100921.53
2022-12-13T01:18:51.173Z,100925.66
2022-12-13T01:21:19.134Z,100936.31
2022-12-13T01:23:45.838Z,100926.06
2022-12-13T01:26:13.936Z,100933.91
2022-12-13T01:28:40.743Z,100930.44
2022-12-13T01:31:10.737Z,100927.63
2022-12-13T01:33:40.408Z,100929.97
2022-12-13T01:36:08.546Z,100926.88
2022-12-13T01:38:38.421Z,100917.94
2022-12-13T01:41:16.954Z,100921.00
2022-12-13T01:43:47.184Z,100916.53
2022-12-13T01:46:15.537Z,100923.03
2022-12-13T01:49:06.271Z,100924.16
2022-12-13T01:51:54.236Z,100922.75
2022-12-13T01:54:23.363Z,100920.53
2022-12-13T01:56:52.974Z,100913.47
2022-12-13T01:59:28.317Z,100911.50
2022-12-13T02:01:54.921Z,100914.00
2022-12-13T02:04:30.397Z,100911.69
2022-12-13T02:06:57.765Z,100915.50
2022-12-13T02:09:25.375Z,100921.56
2022-12-13T02:11:51.824Z,100913.00
2022-12-13T02:14:18.280Z,100907.41
2022-12-13T02:16:57.203Z,100903.09
2022-12-13T02:19:32.907Z,100911.69
2022-12-13T02:22:17.732Z,100906.81
2022-12-13T02:24:56.524Z,100908.41
2022-12-13T02:27:30.816Z,100898.03
2022-12-13T02:30:16.410Z,100902.22
2022-12-13T02:32:58.365Z,100893.00
2022-12-13T02:35:33.876Z,100902.16
2022-12-13T02:38:24.296Z,100900.09
2022-12-13T02:41:11.276Z,100898.13
2022-12-13T02:43:45.951Z,100891.09
2022-12-13T02:46:13.010Z,100891.69
2022-12-13T02:48:41.326Z,100897.66
2022-12-13T02:51:09.587Z,100897.09
2022-12-13T02:53:36.882Z,100889.91
2022-12-13T02:56:03.365Z,100891.47
2022-12-13T02:58:33.868Z,100888.06
2022-12-13T03:01:29.208Z,100894.28
2022-12-13T03:04:08.216Z,100883.66
2022-12-13T03:06:39.740Z,100879.25
2022-12-13T03:09:10.044Z,100882.78
2022-12-13T03:12:01.408Z,100898.19
2022-12-13T03:14:31.513Z,100906.06
2022-12-13T03:17:00.789Z,100891.31
2022-12-13T03:19:27.542Z,100894.66
2022-12-13T03:21:54.000Z,100886.91
2022-12-13T03:24:21.253Z,100882.16
2022-12-13T03:26:48.837Z,100882.59
2022-12-13T03:29:23.919Z,100882.34
2022-12-13T03:31:51.366Z,100879.16
2022-12-13T03:34:23.063Z,100877.19
2022-12-13T03:36:51.667Z,100879.97
2022-12-13T03:39:18.296Z,100879.06
2022-12-13T03:41:45.098Z,100876.53
2022-12-13T03:44:11.702Z,100878.13
2022-12-13T03:46:38.449Z,100878.22
2022-12-13T03:49:05.092Z,100875.25
2022-12-13T03:51:31.703Z,100866.75
2022-12-13T03:53:58.303Z,100863.63
2022-12-13T03:56:25.121Z,100870.09
2022-12-13T03:58:52.507Z,100864.94
2022-12-13T04:01:19.195Z,100862.22
2022-12-13T04:03:46.898Z,100858.78
2022-12-13T04:06:22.146Z,100865.78
2022-12-13T04:08:51.351Z,100858.75
2022-12-13T04:11:36.428Z,100857.63
2022-12-13T04:14:09.518Z,100849.06
2022-12-13T04:16:36.187Z,100849.06
2022-12-13T04:19:02.811Z,100845.91
2022-12-13T04:21:29.403Z,100851.03
2022-12-13T04:23:55.938Z,100858.03
2022-12-13T04:26:27.706Z,100854.81
2022-12-13T04:28:54.920Z,100852.56
2022-12-13T04:31:21.976Z,100837.69
2022-12-13T04:33:48.504Z,100835.91
2022-12-13T04:36:31.561Z,100832.34
2022-12-13T04:39:00.620Z,100826.81
2022-12-13T04:41:27.606Z,100828.56
2022-12-13T04:44:02.560Z,100835.09
2022-12-13T04:46:29.067Z,100829.69
2022-12-13T04:48:55.467Z,100829.69
2022-12-13T04:51:21.951Z,100831.91
2022-12-13T04:53:48.910Z,100829.78
2022-12-13T04:56:15.797Z,100833.75
2022-12-13T04:58:42.919Z,100832.47
2022-12-13T05:01:11.220Z,100827.94
2022-12-13T05:03:38.825Z,100831.66
2022-12-13T05:06:06.338Z,100845.88
2022-12-13T05:08:53.080Z,100847.47
2022-12-13T05:11:19.778Z,100852.44
2022-12-13T05:13:49.402Z,100842.47
2022-12-13T05:16:16.245Z,100839.03
2022-12-13T05:18:42.849Z,100840.09
2022-12-13T05:21:10.612Z,100834.13
2022-12-13T05:23:37.439Z,100842.34
2022-12-13T05:26:04.449Z,100836.97
2022-12-13T05:28:31.231Z,100836.25
2022-12-13T05:31:00.263Z,100835.31
2022-12-13T05:33:27.131Z,100837.72
2022-12-13T05:35:57.825Z,100835.13
2022-12-13T05:38:27.100Z,100833.41
2022-12-13T05:40:54.081Z,100835.94
2022-12-13T05:43:21.951Z,100842.56
2022-12-13T05:45:48.971Z,100842.03
2022-12-13T05:48:24.259Z,100845.81
2022-12-13T05:50:51.802Z,100846.66
2022-12-13T05:53:36.986Z,100842.03
2022-12-13T05:56:03.850Z,100852.22
2022-12-13T05:58:35.644Z,100844.75
2022-12-13T06:01:13.164Z,100846.19
2022-12-13T06:03:40.464Z,100841.81
2022-12-13T06:06:07.683Z,100840.94
2022-12-13T06:08:35.531Z,100840.50
2022-12-13T06:11:10.970Z,100793.19
2022-12-13T06:13:42.292Z,100833.97
2022-12-13T06:16:12.828Z,100839.41
2022-12-13T06:18:50.677Z,100838.50
2022-12-13T06:21:18.290Z,100834.00
2022-12-13T06:23:44.930Z,100831.72
2022-12-13T06:26:12.495Z,100837.41
2022-12-13T06:28:40.574Z,100831.31
2022-12-13T06:31:07.181Z,100829.69
2022-12-13T06:33:36.858Z,100829.16
2022-12-13T06:36:03.961Z,100836.06
2022-12-13T06:38:32.377Z,100835.25
2022-12-13T06:41:12.381Z,100837.03
2022-12-13T06:43:41.460Z,100833.81
2022-12-13T06:46:08.034Z,100838.13
2022-12-13T06:48:35.892Z,100838.44
2022-12-13T06:51:04.174Z,100842.66
2022-12-13T06:53:31.392Z,100836.44
2022-12-13T06:56:02.894Z,100840.25
2022-12-13T06:58:29.659Z,100844.75
2022-12-13T07:01:14.864Z,100838.47
2022-12-13T07:03:50.261Z,100844.13
2022-12-13T07:06:17.930Z,100838.25
2022-12-13T07:08:47.580Z,100840.78
2022-12-13T07:11:15.641Z,100837.19
2022-12-13T07:13:43.198Z,100840.56
2022-12-13T07:16:10.279Z,100851.91
2022-12-13T07:18:36.764Z,100848.19
2022-12-13T07:21:06.759Z,100846.88
2022-12-13T07:23:34.258Z,100853.19
2022-12-13T07:26:01.087Z,100852.13
2022-12-13T07:28:27.530Z,100845.19
2022-12-13T07:30:54.129Z,100848.75
2022-12-13T07:33:22.500Z,100851.28
2022-12-13T07:35:49.162Z,100857.38
2022-12-13T07:38:23.896Z,100852.50
2022-12-13T07:40:50.274Z,100854.00
2022-12-13T07:43:17.004Z,100851.28
2022-12-13T07:45:43.928Z,100855.25
2022-12-13T07:48:10.670Z,100855.47
2022-12-13T07:50:38.035Z,100857.38
2022-12-13T07:53:06.267Z,100861.69
2022-12-13T07:55:34.070Z,100858.59
2022-12-13T07:58:06.562Z,100859.53
2022-12-13T08:00:33.574Z,100866.38
2022-12-13T08:03:03.531Z,100864.13
2022-12-13T08:05:38.231Z,100859.81
2022-12-13T08:08:06.843Z,100870.72
2022-12-13T08:10:33.419Z,100871.69
2022-12-13T08:13:02.739Z,100873.56
2022-12-13T08:15:30.216Z,100869.25
2022-12-13T08:17:57.401Z,100874.13
2022-12-13T08:20:24.115Z,100875.44
2022-12-13T08:23:01.706Z,100867.75
2022-12-13T08:25:29.512Z,100861.81
2022-12-13T08:27:55.869Z,100866.47
2022-12-13T08:30:29.323Z,100868.06
2022-12-13T08:32:56.066Z,100866.56
2022-12-13T08:35:22.627Z,100860.81
2022-12-13T08:37:49.155Z,100856.69
2022-12-13T08:40:15.622Z,100852.78
2022-12-13T08:42:42.075Z,100856.06
2022-12-13T08:45:08.981Z,100850.44
2022-12-13T08:47:41.645Z,100851.66
2022-12-13T08:50:09.120Z,100844.25
2022-12-13T08:52:39.731Z,100841.00
2022-12-13T08:55:07.685Z,100844.81
2022-12-13T08:57:35.932Z,100839.75
2022-12-13T09:00:03.532Z,100849.50
2022-12-13T09:02:30.288Z,100844.00
2022-12-13T09:05:05.040Z,100850.94
2022-12-13T09:07:31.623Z,100844.00
2022-12-13T09:09:58.050Z,100834.31
2022-12-13T09:12:29.611Z,100839.72
2022-12-13T09:15:01.552Z,100838.75
2022-12-13T09:17:30.204Z,100838.91
2022-12-13T09:20:09.994Z,100838.06
2022-12-13T09:22:51.629Z,100841.03
2022-12-13T09:25:24.230Z,100848.03
2022-12-13T09:27:53.955Z,100851.78
2022-12-13T09:30:20.998Z,100852.69
2022-12-13T09:32:50.047Z,100852.06
2022-12-13T09:35:16.574Z,100856.88
2022-12-13T09:37:46.045Z,100853.16
2022-12-13T09:40:25.789Z,100861.66
2022-12-13T09:43:11.835Z,100857.56
2022-12-13T09:45:44.073Z,100860.06
2022-12-13T09:48:11.598Z,100856.59
2022-12-13T09:50:46.366Z,100847.13
2022-12-13T09:53:21.807Z,100842.38
2022-12-13T09:55:49.930Z,100838.75
2022-12-13T09:58:30.292Z,100840.06
2022-12-13T10:00:57.451Z,100833.69
2022-12-13T10:03:25.570Z,100834.47
2022-12-13T10:06:12.567Z,100835.56
2022-12-13T10:08:41.595Z,100827.13
2022-12-13T10:11:12.043Z,100830.56
2022-12-13T10:14:04.684Z,100835.06
2022-12-13T10:16:36.555Z,100828.88
2022-12-13T10:19:29.036Z,100824.25
2022-12-13T10:22:01.588Z,100828.28
2022-12-13T10:24:49.215Z,100824.47
2022-12-13T10:27:17.033Z,100818.72
2022-12-13T10:30:29.438Z,100824.50
2022-12-13T10:32:58.636Z,100819.69
2022-12-13T10:35:35.050Z,100816.75
2022-12-13T10:38:13.405Z,100809.06
2022-12-13T10:40:43.032Z,100811.66
2022-12-13T10:43:17.136Z,100808.66
2022-12-13T10:45:49.309Z,100804.22
2022-12-13T10:48:20.177Z,100801.53
2022-12-13T10:50:55.922Z,100804.81
2022-12-13T10:53:23.056Z,100799.38
2022-12-13T10:55:54.271Z,100797.88
2022-12-13T10:58:20.883Z,100800.69
2022-12-13T11:00:49.323Z,100799.97
2022-12-13T11:03:28.537Z,100791.03
2022-12-13T11:06:13.078Z,100798.81
2022-12-13T11:08:39.491Z,100785.94
2022-12-13T11:11:06.829Z,100790.75
2022-12-13T11:13:33.539Z,100783.09
2022-12-13T11:16:01.691Z,100784.38
2022-12-13T11:18:33.115Z,100780.06
2022-12-13T11:21:02.118Z,100777.31
2022-12-13T11:23:32.007Z,100778.66
2022-12-13T11:26:00.565Z,100786.75
2022-12-13T11:28:40.135Z,100774.63
2022-12-13T11:31:06.878Z,100771.69
2022-12-13T11:33:48.104Z,100769.47
2022-12-13T11:36:33.470Z,100756.66
2022-12-13T11:39:08.979Z,100763.31
2022-12-13T11:41:44.576Z,100760.88
2022-12-13T11:44:25.808Z,100761.53
2022-12-13T11:46:54.234Z,100750.81
2022-12-13T11:49:30.674Z,100752.13
2022-12-13T11:52:01.094Z,100747.47
2022-12-13T11:54:38.524Z,100754.00
2022-12-13T11:57:13.661Z,100745.81
2022-12-13T11:59:42.602Z,100751.63
2022-12-13T12:02:21.459Z,100743.31
2022-12-13T12:04:47.899Z,100745.69
2022-12-13T12:07:32.539Z,100736.78
2022-12-13T12:10:04.611Z,100738.72
2022-12-13T12:12:38.112Z,100738.31
2022-12-13T12:15:16.312Z,100726.91
2022-12-13T12:17:43.870Z,100731.91
2022-12-13T12:20:13.737Z,100724.94
2022-12-13T12:22:55.720Z,100730.94
2022-12-13T12:25:22.545Z,100729.00
2022-12-13T12:27:52.808Z,100726.06
2022-12-13T12:30:24.251Z,100733.28
2022-12-13T12:32:53.592Z,100732.44
2022-12-13T12:35:29.373Z,100740.22
2022-12-13T12:37:58.748Z,100727.06
2022-12-13T12:40:46.197Z,100736.09
2022-12-13T12:43:31.997Z,100728.16
2022-12-13T12:46:01.830Z,100723.97
2022-12-13T12:48:57.015Z,100719.50
2022-12-13T12:51:34.667Z,100722.00
2022-12-13T12:54:19.714Z,100722.44
2022-12-13T12:56:54.339Z,100723.00
2022-12-13T12:59:35.333Z,100714.38
2022-12-13T13:02:01.972Z,100711.53
2022-12-13T13:04:39.060Z,100716.88
2022-12-13T13:07:39.961Z,100714.78
2022-12-13T13:10:25.889Z,100709.78
2022-12-13T13:13:11.461Z,100705.88
2022-12-13T13:15:39.828Z,100708.53
2022-12-13T13:18:27.270Z,100707.28
2022-12-13T13:21:13.399Z,100700.31
2022-12-13T13:23:40.921Z,100701.44
2022-12-13T13:26:24.588Z,100706.56
2022-12-13T13:28:53.564Z,100703.78
2022-12-13T13:31:20.386Z,100704.34
2022-12-13T13:33:48.096Z,100697.09
2022-12-13T13:36:33.193Z,100706.44
2022-12-13T13:39:01.357Z,100706.69
2022-12-13T13:41:55.253Z,100702.81
2022-12-13T13:44:40.374Z,100701.44
2022-12-13T13:47:10.502Z,100706.59
2022-12-13T13:49:39.709Z,100708.66
2022-12-13T13:52:25.251Z,100706.31
2022-12-13T13:55:10.960Z,100704.06
2022-12-13T13:58:11.793Z,100698.75
2022-12-13T14:00:57.069Z,100705.75
2022-12-13T14:03:35.831Z,100698.22
2022-12-13T14:06:21.281Z,100693.22
2022-12-13T14:09:06.527Z,100685.22
2022-12-13T14:12:03.186Z,100682.94
2022-12-13T14:14:49.794Z,100676.56
2022-12-13T14:17:35.718Z,100691.38
2022-12-13T14:20:08.229Z,100693.63
2022-12-13T14:22:36.719Z,100692.97
2022-12-13T14:25:23.361Z,100696.09
2022-12-13T14:28:29.124Z,100689.88
2022-12-13T14:31:02.046Z,100684.25
2022-12-13T14:33:29.291Z,100695.72
2022-12-13T14:35:59.710Z,100690.56
2022-12-13T14:38:27.829Z,100690.28
2022-12-13T14:40:56.427Z,100688.44
2022-12-13T14:43:27.537Z,100684.59
2022-12-13T14:45:59.343Z,100681.25
2022-12-13T14:48:28.053Z,100681.53
2022-12-13T14:50:55.793Z,100676.25
2022-12-13T14:53:34.329Z,100676.41
2022-12-13T14:56:04.443Z,100665.38
2022-12-13T14:58:31.255Z,100664.97
2022-12-13T15:00:57.792Z,100672.22
2022-12-13T15:03:26.210Z,100667.38
2022-12-13T15:05:54.683Z,100653.72
2022-12-13T15:08:22.443Z,100652.00
2022-12-13T15:11:05.275Z,100653.41
2022-12-13T15:13:34.854Z,100660.09
2022-12-13T15:16:10.338Z,100669.06
2022-12-13T15:18:38.921Z,100644.25
2022-12-13T15:21:18.219Z,100645.50
2022-12-13T15:23:49.475Z,100647.84
2022-12-13T15:26:27.652Z,100653.97
2022-12-13T15:29:01.192Z,100651.06
2022-12-13T15:31:29.041Z,100651.22
2022-12-13T15:34:29.004Z,100639.09
2022-12-13T15:37:01.348Z,100634.09
2022-12-13T15:39:28.318Z,100634.91
2022-12-13T15:41:57.631Z,100648.00
2022-12-13T15:44:29.821Z,100647.94
2022-12-13T15:47:04.032Z,100640.06
2022-12-13T15:49:35.869Z,100643.38
2022-12-13T15:52:09.327Z,100635.94
2022-12-13T15:54:35.879Z,100633.41
2022-12-13T15:57:16.035Z,100637.59
2022-12-13T15:59:43.807Z,100640.09
2022-12-13T16:02:15.259Z,100647.47
2022-12-13T16:04:42.114Z,100643.66
2022-12-13T16:07:27.165Z,100643.13
2022-12-13T16:09:54.562Z,100636.78
2022-12-13T16:12:23.488Z,100642.00
2022-12-13T16:14:50.482Z,100638.66
2022-12-13T16:17:21.975Z,100637.41
2022-12-13T16:19:48.980Z,100633.38
2022-12-13T16:22:21.868Z,100634.72
2022-12-13T16:24:50.734Z,100634.19
2022-12-13T16:27:18.544Z,100634.16
2022-12-13T16:29:45.430Z,100627.22
2022-12-13T16:32:12.355Z,100635.19
2022-12-13T16:34:39.355Z,100638.91
2022-12-13T16:37:09.092Z,100639.41
2022-12-13T16:39:52.647Z,100645.03
2022-12-13T16:42:20.220Z,100636.72
2022-12-13T16:44:48.255Z,100640.06
2022-12-13T16:47:24.375Z,100629.94
2022-12-13T16:49:53.820Z,100637.63
2022-12-13T16:52:22.069Z,100635.78
2022-12-13T16:54:49.081Z,100638.22
2022-12-13T16:57:15.878Z,100641.19
2022-12-13T16:59:42.836Z,100638.84
2022-12-13T17:02:16.504Z,100635.06
2022-12-13T17:04:42.888Z,100638.00
2022-12-13T17:07:09.408Z,100634.88
2022-12-13T17:09:36.297Z,100638.91
2022-12-13T17:12:02.846Z,100636.72
2022-12-13T17:14:29.960Z,100636.84
2022-12-13T17:16:56.849Z,100633.09
2022-12-13T17:19:23.967Z,100627.03
2022-12-13T17:21:51.385Z,100627.66
2022-12-13T17:24:18.312Z,100621.75
2022-12-13T17:26:55.047Z,100619.69
2022-12-13T17:29:22.586Z,100617.31
2022-12-13T17:31:49.664Z,100617.34
2022-12-13T17:34:16.763Z,100603.66
2022-12-13T17:36:44.414Z,100614.97
2022-12-13T17:39:12.423Z,100611.56
2022-12-13T17:41:39.249Z,100607.19
2022-12-13T17:44:06.385Z,100610.56
2022-12-13T17:46:34.871Z,100608.53
2022-12-13T17:49:01.624Z,100617.69
2022-12-13T17:51:29.353Z,100613.81
2022-12-13T17:53:56.166Z,100606.34
2022-12-13T17:56:23.126Z,100608.56
2022-12-13T17:58:53.480Z,100599.94
2022-12-13T18:01:21.764Z,100596.84
2022-12-13T18:03:51.687Z,100605.13
2022-12-13T18:06:18.514Z,100598.34
2022-12-13T18:08:45.750Z,100603.06
2022-12-13T18:11:32.206Z,100601.63
2022-12-13T18:13:59.411Z,100602.16
2022-12-13T18:16:32.104Z,100597.06
2022-12-13T18:19:06.150Z,100598.44
2022-12-13T18:21:34.360Z,100595.19
2022-12-13T18:24:01.435Z,100593.88
2022-12-13T18:26:30.245Z,100587.91
2022-12-13T18:28:57.112Z,100587.94
2022-12-13T18:31:25.133Z,100583.50
2022-12-13T18:33:53.111Z,100584.66
2022-12-13T18:36:21.434Z,100586.63
2022-12-13T18:38:48.935Z,100595.59
2022-12-13T18:41:17.333Z,100589.66
2022-12-13T18:43:46.054Z,100588.91
2022-12-13T18:46:13.920Z,100589.22
2022-12-13T18:48:41.264Z,100582.44
2022-12-13T18:51:09.021Z,100588.00
2022-12-13T18:53:35.871Z,100582.22
2022-12-13T18:56:04.934Z,100573.41
2022-12-13T18:58:31.986Z,100579.97
2022-12-13T19:00:58.484Z,100575.25
2022-12-13T19:03:27.086Z,100572.19
2022-12-13T19:05:56.390Z,100573.22
2022-12-13T19:08:26.222Z,100567.94
2022-12-13T19:10:54.227Z,100575.16
2022-12-13T19:13:22.856Z,100571.22
2022-12-13T19:15:49.688Z,100571.56
2022-12-13T19:18:16.440Z,100565.53
2022-12-13T19:20:47.194Z,100577.91
2022-12-13T19:23:13.832Z,100579.72
2022-12-13T19:25:40.553Z,100581.19
2022-12-13T19:28:07.635Z,100587.31
2022-12-13T19:30:35.129Z,100586.44
2022-12-13T19:33:03.075Z,100594.19
2022-12-13T19:35:29.926Z,100583.09
2022-12-13T19:37:57.249Z,100589.72
2022-12-13T19:40:25.443Z,100595.19
2022-12-13T19:42:52.543Z,100590.44
2022-12-13T19:45:19.811Z,100595.78
2022-12-13T19:47:48.634Z,100587.97
2022-12-13T19:50:15.738Z,100595.94
2022-12-13T19:52:42.923Z,100589.69
2022-12-13T19:55:10.476Z,100583.66
2022-12-13T19:57:37.982Z,100582.75
2022-12-13T20:00:06.444Z,100582.72
2022-12-13T20:02:33.507Z,100578.41
2022-12-13T20:05:02.435Z,100575.75
2022-12-13T20:07:29.357Z,100574.16
2022-12-13T20:09:57.042Z,100570.13
2022-12-13T20:12:23.550Z,100579.19
2022-12-13T20:14:51.175Z,100567.78
2022-12-13T20:17:18.573Z,100568.91
2022-12-13T20:19:45.385Z,100567.94
2022-12-13T20:22:12.291Z,100564.28
2022-12-13T20:24:40.451Z,100567.94
2022-12-13T20:27:07.105Z,100561.00
2022-12-13T20:29:34.112Z,100563.41
2022-12-13T20:32:00.965Z,100565.34
2022-12-13T20:34:27.848Z,100553.59
2022-12-13T20:36:54.996Z,100560.69
2022-12-13T20:39:21.603Z,100559.41
2022-12-13T20:41:48.408Z,100562.22
2022-12-13T20:44:15.265Z,100565.50
2022-12-13T20:46:44.683Z,100559.63
2022-12-13T20:49:12.465Z,100555.09
2022-12-13T20:51:41.199Z,100550.19
2022-12-13T20:54:08.274Z,100548.66
2022-12-13T20:56:37.404Z,100547.47
2022-12-13T20:59:06.467Z,100553.78
2022-12-13T21:01:35.516Z,100554.63
2022-12-13T21:04:04.996Z,100550.22
2022-12-13T21:06:40.903Z,100542.91
2022-12-13T21:09:09.094Z,100536.94
2022-12-13T21:11:37.175Z,100542.44
2022-12-13T21:14:12.359Z,100528.38
2022-12-13T21:16:45.021Z,100521.41
2022-12-13T21:19:17.011Z,100519.25
2022-12-13T21:21:44.034Z,100520.34
2022-12-13T21:24:13.066Z,100518.78
2022-12-13T21:26:39.952Z,100513.09
2022-12-13T21:29:07.827Z,100516.53
2022-12-13T21:31:35.053Z,100504.94
2022-12-13T21:34:02.873Z,100513.53
2022-12-13T21:36:31.357Z,100515.34
2022-12-13T21:39:02.514Z,100496.59
2022-12-13T21:41:29.913Z,100502.06
2022-12-13T21:43:57.383Z,100503.88
2022-12-13T21:46:35.755Z,100496.09
2022-12-13T21:49:13.432Z,100497.44
2022-12-13T21:51:46.064Z,100494.19
2022-12-13T21:54:16.773Z,100486.06
2022-12-13T21:57:02.628Z,100493.00
2022-12-13T21:59:29.896Z,100499.09
2022-12-13T22:02:11.995Z,100489.41
2022-12-13T22:04:40.492Z,100485.84
2022-12-13T22:07:08.843Z,100480.81
2022-12-13T22:09:36.331Z,100480.81
2022-12-13T22:12:08.030Z,100485.13
2022-12-13T22:14:35.139Z,100481.44
2022-12-13T22:17:02.574Z,100475.09
2022-12-13T22:19:29.755Z,100465.75
2022-12-13T22:21:57.181Z,100466.97
2022-12-13T22:24:24.373Z,100463.03
2022-12-13T22:26:51.117Z,100464.09
2022-12-13T22:29:18.257Z,100460.03
2022-12-13T22:31:49.103Z,100461.59
2022-12-13T22:34:16.379Z,100459.59
2022-12-13T22:36:43.561Z,100455.75
2022-12-13T22:39:17.489Z,100457.78
2022-12-13T22:41:45.166Z,100458.25
2022-12-13T22:44:12.260Z,100459.78
2022-12-13T22:46:39.207Z,100449.31
2022-12-13T22:49:08.277Z,100453.72
2022-12-13T22:51:35.930Z,100448.53
2022-12-13T22:54:03.629Z,100451.88
2022-12-13T22:56:30.142Z,100457.88
2022-12-13T22:58:57.839Z,100450.25
2022-12-13T23:01:26.151Z,100451.22
2022-12-13T23:03:53.050Z,100452.63
2022-12-13T23:06:22.875Z,100439.75
2022-12-13T23:08:50.903Z,100444.88
2022-12-13T23:11:36.911Z,100438.56
2022-12-13T23:14:05.059Z,100442.38
2022-12-13T23:16:32.854Z,100436.44
2022-12-13T23:19:31.840Z,100446.22
2022-12-13T23:21:48.484Z,100437.84
2022-12-13T23:24:15.810Z,100439.03
2022-12-13T23:26:43.219Z,100436.06
2022-12-13T23:29:10.020Z,100437.25
2022-12-13T23:31:40.391Z,100440.72
2022-12-13T23:34:07.213Z,100434.75
2022-12-13T23:36:34.451Z,100426.88
2022-12-13T23:39:01.794Z,100425.41
2022-12-13T23:41:33.677Z,100438.78
2022-12-13T23:44:01.076Z,100428.03
2022-12-13T23:46:29.903Z,100420.41
2022-12-13T23:48:57.314Z,100425.66
2022-12-13T23:51:24.106Z,100412.06
2022-12-13T23:53:50.630Z,100415.41
2022-12-13T23:56:17.657Z,100412.41
2022-12-13T23:58:47.323Z,100412.78
